Time;durP1;ratioP1;P1;durP2;ratioP2;P2;SDS_P1;SDS_P2;PMS_P1;PMS_P2;Temp;Humidity;BMP_temperature;BMP_pressure;BME280_temperature;BME280_humidity;BME280_pressure;Samples;Min_cycle;Max_cycle;Signal;HPM_P1;HPM_P2
2023/05/21 00:01:47;;;;;;;8.00;4.45;;;;;;;;;;10478132;28;20457;-79
2023/05/21 00:06:50;;;;;;;11.07;5.63;;;;;;;;;;10484735;28;20309;-80
2023/05/21 00:11:54;;;;;;;12.02;4.95;;;;;;;;;;10478438;28;20040;-80
2023/05/21 00:16:56;;;;;;;9.25;5.00;;;;;;;;;;10478766;28;20059;-79
2023/05/21 00:22:01;;;;;;;8.90;4.53;;;;;;;;;;10475295;28;20068;-79
2023/05/21 00:27:05;;;;;;;9.05;4.88;;;;;;;;;;10471427;28;20167;-78
2023/05/21 00:32:08;;;;;;;9.65;4.57;;;;;;;;;;10482667;28;20028;-78
2023/05/21 00:37:14;;;;;;;10.35;5.15;;;;;;;;;;10484172;28;20094;-79
2023/05/21 00:42:18;;;;;;;7.70;3.95;;;;;;;;;;10483667;28;20040;-78
2023/05/21 00:47:21;;;;;;;11.15;5.20;;;;;;;;;;10477204;28;20449;-79
2023/05/21 00:52:25;;;;;;;9.52;4.68;;;;;;;;;;10478299;28;20064;-78
2023/05/21 00:57:32;;;;;;;8.75;4.80;;;;;;;;;;10471298;28;20447;-79
2023/05/21 01:02:35;;;;;;;9.02;3.78;;;;;;;;;;10479343;28;20537;-79
2023/05/21 01:07:40;;;;;;;9.50;5.03;;;;;;;;;;10476362;28;20049;-79
2023/05/21 01:12:45;;;;;;;9.05;4.25;;;;;;;;;;10479213;28;20033;-79
2023/05/21 01:17:48;;;;;;;9.45;4.15;;;;;;;;;;10475769;28;20048;-79
2023/05/21 01:22:54;;;;;;;10.48;4.25;;;;;;;;;;10472248;28;20044;-79
2023/05/21 01:27:57;;;;;;;7.95;3.55;;;;;;;;;;10479659;28;20424;-79
2023/05/21 01:33:02;;;;;;;9.82;3.80;;;;;;;;;;10475265;28;20076;-79
2023/05/21 01:38:09;;;;;;;8.38;4.32;;;;;;;;;;10483687;28;20470;-79
2023/05/21 01:43:12;;;;;;;12.55;4.22;;;;;;;;;;10475205;28;20032;-79
2023/05/21 01:48:17;;;;;;;10.45;4.45;;;;;;;;;;10478823;28;20051;-79
2023/05/21 01:53:21;;;;;;;9.60;4.55;;;;;;;;;;10475245;28;20033;-79
2023/05/21 01:58:24;;;;;;;10.35;4.55;;;;;;;;;;10477980;28;20642;-79
2023/05/21 02:03:29;;;;;;;12.27;4.70;;;;;;;;;;10471869;28;20039;-78
2023/05/21 02:08:34;;;;;;;8.18;4.15;;;;;;;;;;10479338;28;20412;-79
2023/05/21 02:13:41;;;;;;;10.70;4.93;;;;;;;;;;10483927;28;20036;-79
2023/05/21 02:18:45;;;;;;;8.45;4.38;;;;;;;;;;10473879;28;20131;-79
2023/05/21 02:23:48;;;;;;;;;;;;;;;;;;10472396;28;20059;-79
2023/05/21 02:28:52;;;;;;;8.77;4.32;;;;;;;;;;10470907;28;19928;-79
2023/05/21 02:33:55;;;;;;;8.02;3.78;;;;;;;;;;10476100;28;20036;-79
2023/05/21 02:39:00;;;;;;;9.05;5.05;;;;;;;;;;10471078;28;20060;-79
2023/05/21 02:44:04;;;;;;;9.75;4.60;;;;;;;;;;10477522;28;20038;-79
2023/05/21 02:49:07;;;;;;;9.50;4.63;;;;;;;;;;10476317;28;20113;-79
2023/05/21 02:54:10;;;;;;;10.87;4.73;;;;;;;;;;10465951;28;20032;-79
2023/05/21 02:59:15;;;;;;;10.03;4.33;;;;;;;;;;10469950;28;20040;-79
2023/05/21 03:04:20;;;;;;;11.73;4.65;;;;;;;;;;10474830;28;20038;-79
2023/05/21 03:09:23;;;;;;;8.50;4.22;;;;;;;;;;10469663;28;20052;-80
2023/05/21 03:14:27;;;;;;;8.10;3.17;;;;;;;;;;10472890;28;20039;-80
2023/05/21 03:19:33;;;;;;;;;;;;;;;;;;10476260;28;20088;-79
2023/05/21 03:24:36;;;;;;;9.20;4.28;;;;;;;;;;10470848;28;20241;-81
2023/05/21 03:29:43;;;;;;;9.68;4.35;;;;;;;;;;10464063;28;20449;-79
2023/05/21 03:34:46;;;;;;;8.02;3.70;;;;;;;;;;10468187;28;20120;-79
2023/05/21 03:39:49;;;;;;;10.10;4.90;;;;;;;;;;10474923;28;20041;-79
2023/05/21 03:44:53;;;;;;;10.03;4.50;;;;;;;;;;10473700;28;20032;-80
2023/05/21 03:49:56;;;;;;;10.35;4.22;;;;;;;;;;10474932;28;20095;-80
2023/05/21 03:54:58;;;;;;;11.25;5.57;;;;;;;;;;10470593;28;20106;-79
2023/05/21 04:00:04;;;;;;;10.87;5.10;;;;;;;;;;10468304;28;20056;-80
2023/05/21 04:05:07;;;;;;;9.15;4.07;;;;;;;;;;10467297;28;20306;-78
2023/05/21 04:10:10;;;;;;;9.95;4.78;;;;;;;;;;10463083;28;20501;-79
2023/05/21 04:15:17;;;;;;;9.82;5.00;;;;;;;;;;10471223;28;20185;-79
2023/05/21 04:20:20;;;;;;;10.25;4.72;;;;;;;;;;10467965;28;20512;-79
2023/05/21 04:25:24;;;;;;;8.63;3.57;;;;;;;;;;10475510;28;20166;-79
2023/05/21 04:30:28;;;;;;;7.75;3.05;;;;;;;;;;10471865;28;20044;-78
2023/05/21 04:35:31;;;;;;;10.57;4.65;;;;;;;;;;10470920;28;20674;-78
2023/05/21 04:40:34;;;;;;;6.13;3.73;;;;;;;;;;10468886;28;20044;-80
2023/05/21 04:45:40;;;;;;;8.55;4.72;;;;;;;;;;10473570;28;20032;-78
2023/05/21 04:50:43;;;;;;;9.43;4.53;;;;;;;;;;10479776;28;20052;-79
2023/05/21 04:55:46;;;;;;;9.40;3.50;;;;;;;;;;10476769;28;20048;-79
2023/05/21 05:00:52;;;;;;;11.10;4.90;;;;;;;;;;10475417;28;20049;-79
2023/05/21 05:05:55;;;;;;;8.57;4.40;;;;;;;;;;10473008;28;20409;-79
2023/05/21 05:10:57;;;;;;;10.35;4.78;;;;;;;;;;10478978;28;20124;-79
2023/05/21 05:16:02;;;;;;;8.10;4.35;;;;;;;;;;10475669;28;20045;-79
2023/05/21 05:21:05;;;;;;;10.10;4.70;;;;;;;;;;10481350;28;20048;-79
2023/05/21 05:26:08;;;;;;;9.38;4.50;;;;;;;;;;10482189;28;20033;-80
2023/05/21 05:31:12;;;;;;;9.63;4.63;;;;;;;;;;10476670;28;20059;-79
2023/05/21 05:36:15;;;;;;;9.68;4.70;;;;;;;;;;10469721;28;20395;-78
2023/05/21 05:41:18;;;;;;;10.07;4.70;;;;;;;;;;10476318;28;20159;-79
2023/05/21 05:46:23;;;;;;;9.43;4.57;;;;;;;;;;10473682;28;20055;-79
2023/05/21 05:51:26;;;;;;;10.07;4.88;;;;;;;;;;10475581;28;20094;-79
2023/05/21 05:56:29;;;;;;;13.40;4.53;;;;;;;;;;10472327;28;20041;-78
2023/05/21 06:01:33;;;;;;;9.63;4.55;;;;;;;;;;10474461;28;20054;-78
2023/05/21 06:06:37;;;;;;;9.18;4.80;;;;;;;;;;10459204;28;20041;-79
2023/05/21 06:11:40;;;;;;;8.77;4.53;;;;;;;;;;10478137;28;20053;-79
2023/05/21 06:16:44;;;;;;;10.68;4.70;;;;;;;;;;10479907;28;20040;-78
2023/05/21 06:21:47;;;;;;;13.10;5.18;;;;;;;;;;10469495;28;20059;-79
2023/05/21 06:26:51;;;;;;;7.15;4.28;;;;;;;;;;10469792;28;20482;-79
2023/05/21 06:31:55;;;;;;;8.27;4.20;;;;;;;;;;10473656;28;20121;-80
2023/05/21 06:36:57;;;;;;;9.18;4.82;;;;;;;;;;10471692;28;20061;-79
2023/05/21 06:42:00;;;;;;;8.18;4.50;;;;;;;;;;10476949;28;20033;-79
2023/05/21 06:47:05;;;;;;;6.28;3.10;;;;;;;;;;10481532;28;20102;-79
2023/05/21 06:52:08;;;;;;;9.07;4.43;;;;;;;;;;10476808;28;20033;-78
2023/05/21 06:57:11;;;;;;;9.55;4.60;;;;;;;;;;10477940;28;20048;-79
2023/05/21 07:02:16;;;;;;;10.00;4.40;;;;;;;;;;10459573;28;20036;-78
2023/05/21 07:07:19;;;;;;;8.57;3.97;;;;;;;;;;10469999;28;20060;-78
2023/05/21 07:12:21;;;;;;;5.90;3.17;;;;;;;;;;10468338;28;20034;-79
2023/05/21 07:17:26;;;;;;;9.60;4.80;;;;;;;;;;10476567;28;20123;-79
2023/05/21 07:22:28;;;;;;;8.27;3.70;;;;;;;;;;10471896;28;20052;-81
2023/05/21 07:27:31;;;;;;;9.03;4.23;;;;;;;;;;10469826;28;20048;-80
2023/05/21 07:32:35;;;;;;;6.85;3.95;;;;;;;;;;10468736;28;20041;-80
2023/05/21 07:37:38;;;;;;;11.18;4.53;;;;;;;;;;10463298;28;20276;-79
2023/05/21 07:42:41;;;;;;;5.93;3.22;;;;;;;;;;10473311;28;20042;-80
2023/05/21 07:47:46;;;;;;;6.22;3.88;;;;;;;;;;10463575;28;20036;-78
2023/05/21 07:52:49;;;;;;;6.10;3.47;;;;;;;;;;10469975;28;20052;-79
2023/05/21 07:57:52;;;;;;;9.25;4.70;;;;;;;;;;10467718;28;20044;-79
2023/05/21 08:02:54;;;;;;;;;;;;;;;;;;10476597;28;20519;-79
2023/05/21 08:07:59;;;;;;;7.85;4.15;;;;;;;;;;10470003;28;19928;-78
2023/05/21 08:13:02;;;;;;;7.28;4.25;;;;;;;;;;10465302;28;20143;-78
2023/05/21 08:18:05;;;;;;;8.80;4.57;;;;;;;;;;10472844;28;20040;-79
2023/05/21 08:23:09;;;;;;;8.02;4.30;;;;;;;;;;10478264;28;20044;-78
2023/05/21 08:28:12;;;;;;;10.85;5.05;;;;;;;;;;10484572;28;20079;-80
2023/05/21 08:33:14;;;;;;;6.32;2.75;;;;;;;;;;10481060;28;20068;-79
2023/05/21 08:38:19;;;;;;;8.40;4.97;;;;;;;;;;10473557;28;20056;-79
2023/05/21 08:43:21;;;;;;;8.82;4.60;;;;;;;;;;10476127;28;20123;-78
2023/05/21 08:48:24;;;;;;;10.32;5.00;;;;;;;;;;10480605;28;20033;-79
2023/05/21 08:53:28;;;;;;;7.30;4.28;;;;;;;;;;10467613;28;20584;-78
2023/05/21 08:58:32;;;;;;;7.63;4.63;;;;;;;;;;10470989;28;21741;-78
2023/05/21 09:03:38;;;;;;;8.60;4.35;;;;;;;;;;10485674;28;20223;-79
2023/05/21 09:08:43;;;;;;;8.73;4.68;;;;;;;;;;10475553;28;20136;-78
2023/05/21 09:13:47;;;;;;;7.57;4.93;;;;;;;;;;10479963;28;20044;-78
2023/05/21 09:18:49;;;;;;;8.45;4.57;;;;;;;;;;10474582;28;20116;-79
2023/05/21 09:23:57;;;;;;;7.32;4.90;;;;;;;;;;10481329;28;20050;-80
2023/05/21 09:29:00;;;;;;;10.45;6.28;;;;;;;;;;10471622;28;20105;-79
2023/05/21 09:34:03;;;;;;;9.13;5.47;;;;;;;;;;10476689;28;20709;-78
2023/05/21 09:39:07;;;;;;;9.00;5.45;;;;;;;;;;10479467;28;20421;-79
2023/05/21 09:44:10;;;;;;;10.15;5.47;;;;;;;;;;10469541;28;20051;-79
2023/05/21 09:49:22;;;;;;;8.82;5.65;;;;;;;;;;10471155;28;20045;-78
2023/05/21 09:54:30;;;;;;;10.50;5.93;;;;;;;;;;10467548;28;20503;-78
2023/05/21 09:59:36;;;;;;;7.03;5.15;;;;;;;;;;10477284;28;20053;-80
2023/05/21 10:04:39;;;;;;;8.50;6.00;;;;;;;;;;10475969;28;20121;-79
2023/05/21 10:09:44;;;;;;;10.27;5.55;;;;;;;;;;10472615;28;20041;-80
2023/05/21 10:14:51;;;;;;;6.95;5.75;;;;;;;;;;10476558;28;20098;-80
2023/05/21 10:19:55;;;;;;;5.90;4.72;;;;;;;;;;10456908;28;20048;-79
2023/05/21 10:24:59;;;;;;;4.80;3.63;;;;;;;;;;10479618;28;20513;-80
2023/05/21 10:30:03;;;;;;;6.72;4.93;;;;;;;;;;10465470;28;20239;-80
2023/05/21 10:35:07;;;;;;;7.28;5.10;;;;;;;;;;10467897;28;20072;-79
2023/05/21 10:40:12;;;;;;;6.97;5.15;;;;;;;;;;10475545;28;20064;-80
2023/05/21 10:45:17;;;;;;;7.28;4.93;;;;;;;;;;10469761;28;20131;-80
2023/05/21 10:50:28;;;;;;;7.13;5.50;;;;;;;;;;10477283;28;20041;-80
2023/05/21 10:55:38;;;;;;;6.88;5.07;;;;;;;;;;10475305;28;20134;-80
2023/05/21 11:00:43;;;;;;;6.28;4.82;;;;;;;;;;10474868;28;20132;-79
2023/05/21 11:05:51;;;;;;;6.80;4.80;;;;;;;;;;10469424;28;20068;-79
2023/05/21 11:10:56;;;;;;;8.10;5.00;;;;;;;;;;10473470;28;20093;-80
2023/05/21 11:16:04;;;;;;;6.88;4.63;;;;;;;;;;10467431;28;20036;-78
2023/05/21 11:21:08;;;;;;;6.78;4.65;;;;;;;;;;10467520;28;20110;-78
2023/05/21 11:26:15;;;;;;;7.10;4.90;;;;;;;;;;10468723;28;20915;-79
2023/05/21 11:31:24;;;;;;;7.38;5.00;;;;;;;;;;10472908;28;20040;-79
2023/05/21 11:36:27;;;;;;;6.93;4.32;;;;;;;;;;10468070;28;20125;-80
2023/05/21 11:41:31;;;;;;;8.40;5.07;;;;;;;;;;10469768;28;20044;-79
2023/05/21 11:46:33;;;;;;;9.05;6.03;;;;;;;;;;10469958;28;20045;-80
2023/05/21 11:51:36;;;;;;;8.32;5.18;;;;;;;;;;10472400;28;20048;-79
2023/05/21 11:56:40;;;;;;;6.80;4.65;;;;;;;;;;10479281;28;20490;-80
2023/05/21 12:01:43;;;;;;;6.90;5.30;;;;;;;;;;10479941;28;20094;-79
2023/05/21 12:06:47;;;;;;;7.95;5.28;;;;;;;;;;10482902;28;20037;-79
2023/05/21 12:11:51;;;;;;;8.90;4.90;;;;;;;;;;10483158;28;20076;-79
2023/05/21 12:16:54;;;;;;;5.65;4.50;;;;;;;;;;10480833;28;20050;-79
2023/05/21 12:21:56;;;;;;;7.18;4.78;;;;;;;;;;10474276;28;20072;-80
2023/05/21 12:27:01;;;;;;;8.48;5.20;;;;;;;;;;10474317;28;20597;-79
2023/05/21 12:32:07;;;;;;;8.07;5.13;;;;;;;;;;10465724;28;20040;-79
2023/05/21 12:37:11;;;;;;;6.03;3.63;;;;;;;;;;10473407;28;20048;-80
2023/05/21 12:42:15;;;;;;;7.30;4.90;;;;;;;;;;10470317;28;20037;-78
2023/05/21 12:47:18;;;;;;;7.53;5.03;;;;;;;;;;10472138;28;20029;-78
2023/05/21 12:52:21;;;;;;;6.68;4.60;;;;;;;;;;10471924;28;20135;-80
2023/05/21 12:57:26;;;;;;;8.20;5.03;;;;;;;;;;10477157;28;20130;-82
2023/05/21 13:02:31;;;;;;;8.10;4.65;;;;;;;;;;10479299;28;20072;-80
2023/05/21 13:07:34;;;;;;;7.25;4.70;;;;;;;;;;10474628;28;20032;-80
2023/05/21 13:12:39;;;;;;;6.72;4.45;;;;;;;;;;10478237;28;20055;-80
2023/05/21 13:17:46;;;;;;;9.70;4.95;;;;;;;;;;10474959;28;20364;-78
2023/05/21 13:22:52;;;;;;;7.63;4.47;;;;;;;;;;10471655;28;20103;-79
2023/05/21 13:27:56;;;;;;;5.93;3.88;;;;;;;;;;10477331;28;20044;-81
2023/05/21 13:32:58;;;;;;;8.65;4.50;;;;;;;;;;10474845;28;20044;-81
2023/05/21 13:38:02;;;;;;;8.45;4.60;;;;;;;;;;10473997;28;20083;-80
2023/05/21 13:43:06;;;;;;;6.32;4.32;;;;;;;;;;10477923;28;20040;-80
2023/05/21 13:48:08;;;;;;;7.90;4.90;;;;;;;;;;10481325;28;20194;-79
2023/05/21 13:53:11;;;;;;;7.07;4.53;;;;;;;;;;10477621;28;20044;-80
2023/05/21 13:58:15;;;;;;;6.63;4.43;;;;;;;;;;10479548;28;20060;-78
2023/05/21 14:03:17;;;;;;;6.20;4.53;;;;;;;;;;10481433;28;20456;-78
2023/05/21 14:08:22;;;;;;;7.15;3.83;;;;;;;;;;10477372;28;20459;-78
2023/05/21 14:13:34;;;;;;;5.22;3.55;;;;;;;;;;10478798;28;20051;-79
2023/05/21 14:18:36;;;;;;;9.25;4.43;;;;;;;;;;10473207;28;20444;-79
2023/05/21 14:23:39;;;;;;;7.00;4.72;;;;;;;;;;10480435;28;20091;-79
2023/05/21 14:28:43;;;;;;;6.75;4.50;;;;;;;;;;10483820;28;20048;-79
2023/05/21 14:33:47;;;;;;;7.30;4.30;;;;;;;;;;10476694;28;20048;-78
2023/05/21 14:38:49;;;;;;;11.32;4.85;;;;;;;;;;10460754;28;20072;-78
2023/05/21 14:43:53;;;;;;;7.22;4.50;;;;;;;;;;10475699;28;20053;-79
2023/05/21 14:48:58;;;;;;;7.75;4.90;;;;;;;;;;10472675;28;20445;-79
2023/05/21 14:54:00;;;;;;;7.60;4.38;;;;;;;;;;10477440;28;20112;-79
2023/05/21 14:59:04;;;;;;;10.80;4.93;;;;;;;;;;10472078;28;20165;-79
2023/05/21 15:04:07;;;;;;;6.00;4.25;;;;;;;;;;10473747;28;20116;-79
2023/05/21 15:09:10;;;;;;;8.68;5.18;;;;;;;;;;10472684;28;20044;-80
2023/05/21 15:14:14;;;;;;;7.47;4.53;;;;;;;;;;10474911;28;20037;-79
2023/05/21 15:19:16;;;;;;;8.00;4.28;;;;;;;;;;10470146;28;20130;-80
2023/05/21 15:24:19;;;;;;;9.00;4.45;;;;;;;;;;10473442;28;20052;-79
2023/05/21 15:29:23;;;;;;;7.60;4.35;;;;;;;;;;10470923;28;20099;-79
2023/05/21 15:34:25;;;;;;;6.55;4.15;;;;;;;;;;10467559;28;20048;-80
2023/05/21 15:39:28;;;;;;;7.75;4.32;;;;;;;;;;10473216;28;20056;-80
2023/05/21 15:44:33;;;;;;;6.10;3.97;;;;;;;;;;10471985;28;20068;-79
2023/05/21 15:49:36;;;;;;;8.13;4.72;;;;;;;;;;10468541;28;20041;-79
2023/05/21 15:54:38;;;;;;;8.82;4.18;;;;;;;;;;10471147;28;20343;-80
2023/05/21 15:59:42;;;;;;;9.15;4.78;;;;;;;;;;10465988;28;20039;-80
2023/05/21 16:04:48;;;;;;;7.97;4.10;;;;;;;;;;10479288;28;20044;-81
2023/05/21 16:09:51;;;;;;;11.20;4.43;;;;;;;;;;10472572;28;20051;-80
2023/05/21 16:14:55;;;;;;;8.68;4.40;;;;;;;;;;10471054;28;20049;-79
2023/05/21 16:19:58;;;;;;;7.35;3.75;;;;;;;;;;10472793;28;20049;-79
2023/05/21 16:25:00;;;;;;;;;;;;;;;;;;10474552;28;20090;-79
2023/05/21 16:30:06;;;;;;;6.83;3.97;;;;;;;;;;10475938;28;19920;-79
2023/05/21 16:35:09;;;;;;;7.03;4.05;;;;;;;;;;10474757;28;20751;-79
2023/05/21 16:40:13;;;;;;;7.03;3.72;;;;;;;;;;10473169;28;20044;-79
2023/05/21 16:45:20;;;;;;;9.30;4.05;;;;;;;;;;10479025;28;20037;-78
2023/05/21 16:50:22;;;;;;;6.60;4.10;;;;;;;;;;10477924;28;20035;-80
2023/05/21 16:55:25;;;;;;;8.90;4.03;;;;;;;;;;10474318;28;20036;-80
2023/05/21 17:00:29;;;;;;;8.63;4.43;;;;;;;;;;10482107;28;20247;-81
2023/05/21 17:05:31;;;;;;;7.88;4.22;;;;;;;;;;10479664;28;20055;-79
2023/05/21 17:10:34;;;;;;;6.68;3.90;;;;;;;;;;10483298;28;20052;-79
2023/05/21 17:15:38;;;;;;;8.80;3.78;;;;;;;;;;10479428;28;20047;-78
2023/05/21 17:20:42;;;;;;;6.53;3.88;;;;;;;;;;10476094;28;20040;-80
2023/05/21 17:25:45;;;;;;;8.20;3.90;;;;;;;;;;10480333;28;20048;-80
2023/05/21 17:30:49;;;;;;;8.27;3.75;;;;;;;;;;10474411;28;20068;-80
2023/05/21 17:35:52;;;;;;;6.90;3.72;;;;;;;;;;10479095;28;20052;-79
2023/05/21 17:40:55;;;;;;;;;;;;;;;;;;10476631;28;20107;-79
2023/05/21 17:45:59;;;;;;;6.67;3.70;;;;;;;;;;10478197;28;19955;-79
2023/05/21 17:51:01;;;;;;;13.18;5.10;;;;;;;;;;10454979;28;20401;-82
2023/05/21 17:56:04;;;;;;;10.05;5.20;;;;;;;;;;10463780;28;20047;-80
2023/05/21 18:01:08;;;;;;;9.15;4.78;;;;;;;;;;10464080;28;20486;-79
2023/05/21 18:06:11;;;;;;;10.30;5.07;;;;;;;;;;10482806;28;20410;-80
2023/05/21 18:11:14;;;;;;;12.13;5.15;;;;;;;;;;10482992;28;20056;-79
2023/05/21 18:16:18;;;;;;;10.18;4.88;;;;;;;;;;10481061;28;20167;-79
2023/05/21 18:21:21;;;;;;;9.30;4.75;;;;;;;;;;10484605;28;20033;-80
2023/05/21 18:26:23;;;;;;;9.73;5.07;;;;;;;;;;10481381;28;20079;-78
2023/05/21 18:31:27;;;;;;;10.63;5.10;;;;;;;;;;10474390;28;20041;-79
2023/05/21 18:36:37;;;;;;;10.98;5.28;;;;;;;;;;10477690;28;20131;-78
2023/05/21 18:41:40;;;;;;;12.68;5.25;;;;;;;;;;10473370;28;20040;-79
2023/05/21 18:46:44;;;;;;;12.93;6.97;;;;;;;;;;10471751;28;20167;-80
2023/05/21 18:51:47;;;;;;;13.15;5.93;;;;;;;;;;10472497;28;20056;-78
2023/05/21 18:56:49;;;;;;;13.43;5.72;;;;;;;;;;10455911;28;20248;-79
2023/05/21 19:01:54;;;;;;;10.13;5.70;;;;;;;;;;10470995;28;20048;-80
2023/05/21 19:06:57;;;;;;;11.38;5.82;;;;;;;;;;10475587;28;20044;-81
2023/05/21 19:12:00;;;;;;;13.60;5.50;;;;;;;;;;10473752;28;20120;-80
2023/05/21 19:17:04;;;;;;;12.60;6.20;;;;;;;;;;10473369;28;20453;-80
2023/05/21 19:22:07;;;;;;;11.20;5.88;;;;;;;;;;10476247;28;20036;-79
2023/05/21 19:27:09;;;;;;;11.48;5.95;;;;;;;;;;10472025;28;20094;-79
2023/05/21 19:32:14;;;;;;;11.73;6.13;;;;;;;;;;10475612;28;20053;-79
2023/05/21 19:37:17;;;;;;;10.88;5.78;;;;;;;;;;10475185;28;20128;-79
2023/05/21 19:42:20;;;;;;;12.43;6.40;;;;;;;;;;10474214;28;20049;-79
2023/05/21 19:47:24;;;;;;;15.15;5.93;;;;;;;;;;10475619;28;20345;-79
2023/05/21 19:52:27;;;;;;;11.65;6.03;;;;;;;;;;10470753;28;20549;-81
2023/05/21 19:57:30;;;;;;;13.47;6.30;;;;;;;;;;10476598;28;20075;-78
2023/05/21 20:02:33;;;;;;;;;;;;;;;;;;10475099;28;20501;-83
2023/05/21 20:07:37;;;;;;;11.65;6.00;;;;;;;;;;10455360;28;20491;-79
2023/05/21 20:12:40;;;;;;;11.23;5.93;;;;;;;;;;10469911;28;20040;-79
2023/05/21 20:17:43;;;;;;;15.50;6.43;;;;;;;;;;10481190;28;20051;-80
2023/05/21 20:22:48;;;;;;;10.50;5.20;;;;;;;;;;10480583;28;20037;-79
2023/05/21 20:27:52;;;;;;;15.55;6.65;;;;;;;;;;10483401;28;20140;-80
2023/05/21 20:32:56;;;;;;;;;;;;;;;;;;10479089;28;20041;-82
2023/05/21 20:38:00;;;;;;;;;;;;;;;;;;10480354;28;19931;-78
2023/05/21 20:43:05;;;;;;;11.18;6.30;;;;;;;;;;10478998;28;20020;-80
2023/05/21 20:48:10;;;;;;;11.52;6.45;;;;;;;;;;10476200;28;20404;-80
2023/05/21 20:53:14;;;;;;;13.23;6.13;;;;;;;;;;10480143;28;20082;-79
2023/05/21 20:58:18;;;;;;;13.15;6.45;;;;;;;;;;10475241;28;20041;-79
2023/05/21 21:03:21;;;;;;;13.15;6.75;;;;;;;;;;10478936;28;20044;-79
2023/05/21 21:08:24;;;;;;;14.07;5.97;;;;;;;;;;10478052;28;20036;-80
2023/05/21 21:13:28;;;;;;;12.05;6.82;;;;;;;;;;10480843;28;20055;-79
2023/05/21 21:18:31;;;;;;;12.23;6.63;;;;;;;;;;10459649;28;20131;-78
2023/05/21 21:23:34;;;;;;;12.33;6.27;;;;;;;;;;10475321;28;20040;-78
2023/05/21 21:28:38;;;;;;;12.73;6.37;;;;;;;;;;10474827;28;20414;-79
2023/05/21 21:33:41;;;;;;;12.55;6.90;;;;;;;;;;10476496;28;20043;-79
2023/05/21 21:38:44;;;;;;;14.35;7.43;;;;;;;;;;10477324;28;20417;-79
2023/05/21 21:43:48;;;;;;;16.00;7.00;;;;;;;;;;10482128;28;20136;-79
2023/05/21 21:48:51;;;;;;;13.82;6.82;;;;;;;;;;10477631;28;20043;-78
2023/05/21 21:53:53;;;;;;;13.02;6.60;;;;;;;;;;10476699;28;20071;-79
2023/05/21 21:58:57;;;;;;;15.85;6.53;;;;;;;;;;10473094;28;20048;-79
2023/05/21 22:04:00;;;;;;;15.10;6.60;;;;;;;;;;10481326;28;20041;-79
2023/05/21 22:09:03;;;;;;;11.90;6.47;;;;;;;;;;10478981;28;20131;-80
2023/05/21 22:14:06;;;;;;;;;;;;;;;;;;10473824;28;20055;-78
2023/05/21 22:19:11;;;;;;;11.90;6.53;;;;;;;;;;10474518;28;20404;-79
2023/05/21 22:24:15;;;;;;;12.63;6.72;;;;;;;;;;10479776;28;20516;-78
2023/05/21 22:29:33;;;;;;;14.55;7.30;;;;;;;;;;10472566;28;20041;-79
2023/05/21 22:34:38;;;;;;;14.27;6.70;;;;;;;;;;10471752;28;20489;-80
2023/05/21 22:39:41;;;;;;;17.77;7.10;;;;;;;;;;10472110;28;20115;-79
2023/05/21 22:44:44;;;;;;;16.67;7.07;;;;;;;;;;10469276;28;20049;-78
2023/05/21 22:49:50;;;;;;;14.77;7.33;;;;;;;;;;10468279;28;20369;-80
2023/05/21 22:54:53;;;;;;;14.32;7.32;;;;;;;;;;10469822;28;20162;-78
2023/05/21 22:59:56;;;;;;;14.77;7.33;;;;;;;;;;10470085;28;20158;-78
2023/05/21 23:05:00;;;;;;;14.73;7.32;;;;;;;;;;10470959;28;20497;-78
2023/05/21 23:10:03;;;;;;;14.98;7.22;;;;;;;;;;10468735;28;20056;-78
2023/05/21 23:15:08;;;;;;;16.50;7.70;;;;;;;;;;10474028;28;20045;-78
2023/05/21 23:20:14;;;;;;;15.18;7.18;;;;;;;;;;10472535;28;20306;-78
2023/05/21 23:25:17;;;;;;;17.77;7.85;;;;;;;;;;10471736;28;20047;-78
2023/05/21 23:30:21;;;;;;;14.20;7.28;;;;;;;;;;10471964;28;20051;-78
2023/05/21 23:35:25;;;;;;;17.13;7.95;;;;;;;;;;10466676;28;20480;-78
2023/05/21 23:40:28;;;;;;;16.83;8.50;;;;;;;;;;10469563;28;20551;-78
2023/05/21 23:45:31;;;;;;;20.03;7.73;;;;;;;;;;10473351;28;20419;-78
2023/05/21 23:50:36;;;;;;;17.33;7.88;;;;;;;;;;10469423;28;20109;-78
2023/05/21 23:55:38;;;;;;;16.52;7.60;;;;;;;;;;10470467;28;20132;-79
